Time;durP1;ratioP1;P1;durP2;ratioP2;P2;SDS_P1;SDS_P2;PMS_P1;PMS_P2;Temp;Humidity;BMP_temperature;BMP_pressure;BME280_temperature;BME280_humidity;BME280_pressure;Samples;Min_cycle;Max_cycle;Signal;HPM_P1;HPM_P2
2021/08/18 00:00:42;;;;;;;5.40;3.83;;;14.90;57.20;;;;;;5050041;28;20233;-49
2021/08/18 00:03:12;;;;;;;4.93;3.60;;;14.90;57.10;;;;;;5049596;28;20629;-43
2021/08/18 00:05:43;;;;;;;4.22;3.15;;;14.90;57.10;;;;;;5030397;28;20266;-45
2021/08/18 00:08:13;;;;;;;3.60;3.28;;;14.90;57.10;;;;;;5030928;28;20251;-45
2021/08/18 00:10:44;;;;;;;3.78;3.40;;;14.90;57.10;;;;;;5040167;28;20295;-52
2021/08/18 00:13:16;;;;;;;4.57;3.45;;;14.90;57.10;;;;;;5050710;28;20287;-45
2021/08/18 00:15:47;;;;;;;6.75;4.18;;;15.00;57.20;;;;;;5050044;28;20274;-47
2021/08/18 00:18:17;;;;;;;4.22;3.75;;;15.00;57.60;;;;;;5049929;28;20247;-46
2021/08/18 00:20:48;;;;;;;5.45;4.00;;;15.00;57.70;;;;;;5050244;28;20235;-44
2021/08/18 00:23:18;;;;;;;5.15;3.90;;;15.00;57.90;;;;;;5049069;28;20296;-44
2021/08/18 00:25:49;;;;;;;4.97;3.50;;;15.10;58.10;;;;;;5050428;28;20778;-43
2021/08/18 00:28:21;;;;;;;5.55;3.50;;;15.10;58.10;;;;;;5050725;28;20647;-42
2021/08/18 00:30:51;;;;;;;3.80;3.38;;;15.10;58.10;;;;;;5050823;28;20231;-43
2021/08/18 00:33:22;;;;;;;4.07;3.35;;;15.20;58.10;;;;;;5048726;28;20589;-44
2021/08/18 00:35:52;;;;;;;4.10;3.38;;;15.20;58.00;;;;;;5034675;28;20664;-49
2021/08/18 00:38:23;;;;;;;5.10;3.70;;;15.20;58.00;;;;;;5034277;28;20235;-45
2021/08/18 00:40:53;;;;;;;3.38;2.97;;;15.20;57.90;;;;;;5034645;28;20239;-47
2021/08/18 00:43:25;;;;;;;3.92;3.28;;;15.20;57.70;;;;;;5034715;28;20224;-51
2021/08/18 00:45:56;;;;;;;3.90;3.10;;;15.20;57.70;;;;;;5034581;28;20306;-51
2021/08/18 00:48:26;;;;;;;3.88;3.47;;;15.30;57.70;;;;;;5034610;28;20342;-42
2021/08/18 00:50:56;;;;;;;4.10;3.40;;;15.30;57.60;;;;;;5034572;28;20662;-43
2021/08/18 00:53:27;;;;;;;4.00;3.10;;;15.30;57.60;;;;;;5053207;28;20301;-43
2021/08/18 00:55:58;;;;;;;3.83;3.20;;;15.30;57.60;;;;;;5052543;28;20636;-42
2021/08/18 00:58:30;;;;;;;3.42;3.10;;;15.40;57.60;;;;;;5051922;28;20227;-47
2021/08/18 01:01:01;;;;;;;3.80;3.20;;;15.40;57.60;;;;;;5053525;28;20227;-51
2021/08/18 01:03:33;;;;;;;3.85;3.15;;;15.40;57.60;;;;;;5049518;28;20236;-49
2021/08/18 01:06:04;;;;;;;3.75;3.35;;;15.40;57.60;;;;;;5041107;28;20647;-48
2021/08/18 01:08:35;;;;;;;3.83;3.05;;;15.40;57.60;;;;;;5053566;28;20231;-42
2021/08/18 01:11:05;;;;;;;4.13;3.08;;;15.40;57.60;;;;;;5052756;28;20199;-48
2021/08/18 01:13:37;;;;;;;3.90;3.00;;;15.40;58.10;;;;;;5053585;28;20358;-46
2021/08/18 01:16:08;;;;;;;4.18;2.95;;;15.40;57.50;;;;;;5053497;28;20227;-48
2021/08/18 01:18:38;;;;;;;3.28;2.97;;;15.40;57.50;;;;;;5052727;28;20283;-49
2021/08/18 01:21:10;;;;;;;2.92;2.63;;;15.50;57.40;;;;;;5052627;28;20234;-47
2021/08/18 01:23:40;;;;;;;3.58;3.13;;;15.50;57.40;;;;;;5052903;28;20238;-47
2021/08/18 01:26:11;;;;;;;4.38;3.33;;;15.50;57.30;;;;;;5053011;28;20320;-46
2021/08/18 01:28:43;;;;;;;3.50;2.97;;;15.50;57.30;;;;;;5052811;28;20227;-52
2021/08/18 01:31:13;;;;;;;4.22;3.38;;;15.50;57.30;;;;;;5052993;28;20249;-45
2021/08/18 01:33:44;;;;;;;3.60;2.97;;;15.50;57.20;;;;;;5052859;28;20286;-45
2021/08/18 01:36:14;;;;;;;3.72;3.00;;;15.60;57.20;;;;;;5052781;28;20678;-46
2021/08/18 01:38:45;;;;;;;3.38;3.03;;;15.60;57.20;;;;;;5053699;28;20699;-46
2021/08/18 01:41:15;;;;;;;3.72;2.70;;;15.60;57.20;;;;;;5053755;28;20242;-47
2021/08/18 01:43:47;;;;;;;4.25;3.10;;;15.60;57.10;;;;;;5053925;28;20234;-45
2021/08/18 01:46:18;;;;;;;4.03;2.80;;;15.60;57.10;;;;;;5052963;28;20272;-48
2021/08/18 01:48:48;;;;;;;4.43;3.28;;;15.60;57.10;;;;;;5053771;28;20231;-48
2021/08/18 01:51:19;;;;;;;3.75;2.85;;;15.60;57.20;;;;;;5053359;28;20234;-48
2021/08/18 01:53:49;;;;;;;3.58;3.03;;;15.60;57.20;;;;;;5051454;28;20286;-47
2021/08/18 01:56:20;;;;;;;4.38;3.17;;;15.60;57.20;;;;;;5052772;28;20734;-49
2021/08/18 01:58:52;;;;;;;3.70;3.20;;;15.60;57.10;;;;;;5052607;28;20250;-42
2021/08/18 02:01:22;;;;;;;4.55;3.22;;;15.60;57.30;;;;;;5052869;28;20242;-49
2021/08/18 02:03:53;;;;;;;3.60;2.83;;;15.60;57.30;;;;;;5052907;28;20261;-44
2021/08/18 02:06:23;;;;;;;3.38;2.83;;;15.70;57.50;;;;;;5053370;28;20270;-50
2021/08/18 02:08:53;;;;;;;5.10;3.28;;;15.70;57.50;;;;;;5053123;28;20282;-47
2021/08/18 02:11:24;;;;;;;3.50;2.88;;;15.80;57.60;;;;;;5053146;28;20279;-47
2021/08/18 02:13:56;;;;;;;3.28;2.80;;;15.80;57.50;;;;;;5052974;28;20243;-48
2021/08/18 02:16:27;;;;;;;4.57;3.00;;;15.80;57.50;;;;;;5053026;28;20246;-49
2021/08/18 02:18:57;;;;;;;4.20;3.05;;;15.80;57.50;;;;;;5052733;28;20223;-50
2021/08/18 02:21:27;;;;;;;4.15;3.00;;;15.80;57.40;;;;;;5052832;28;20610;-51
2021/08/18 02:23:58;;;;;;;3.63;3.10;;;15.80;57.40;;;;;;5052799;28;20243;-48
2021/08/18 02:26:28;;;;;;;3.85;2.90;;;15.90;57.40;;;;;;5052390;28;20317;-48
2021/08/18 02:29:00;;;;;;;5.57;3.42;;;15.90;57.40;;;;;;5052713;28;20238;-42
2021/08/18 02:31:32;;;;;;;4.95;3.20;;;15.90;57.30;;;;;;5052904;28;20231;-48
2021/08/18 02:34:02;;;;;;;3.45;2.95;;;15.90;57.30;;;;;;5052780;28;20576;-43
2021/08/18 02:36:33;;;;;;;3.75;3.05;;;15.90;57.30;;;;;;5052637;28;20280;-48
2021/08/18 02:39:03;;;;;;;4.70;2.95;;;15.90;57.20;;;;;;5052129;28;20620;-45
2021/08/18 02:41:34;;;;;;;4.30;2.80;;;16.00;57.20;;;;;;5052458;28;20200;-50
2021/08/18 02:44:06;;;;;;;3.22;2.92;;;16.00;57.20;;;;;;5051959;28;20242;-47
2021/08/18 02:46:38;;;;;;;3.70;3.05;;;16.00;57.10;;;;;;5048778;28;20281;-48
2021/08/18 02:49:08;;;;;;;3.83;2.70;;;16.00;57.10;;;;;;5052473;28;20278;-52
2021/08/18 02:51:39;;;;;;;4.25;2.97;;;16.00;57.10;;;;;;5051862;28;20227;-51
2021/08/18 02:54:09;;;;;;;2.83;2.50;;;16.00;57.00;;;;;;5051357;28;20238;-53
2021/08/18 02:56:40;;;;;;;2.90;2.60;;;16.10;57.00;;;;;;5050989;28;20251;-51
2021/08/18 02:59:12;;;;;;;3.97;2.92;;;16.10;57.00;;;;;;5051870;28;20227;-52
2021/08/18 03:01:42;;;;;;;3.13;2.75;;;16.10;56.90;;;;;;5052243;28;20231;-50
2021/08/18 03:04:13;;;;;;;2.88;2.53;;;16.20;56.90;;;;;;5042482;28;20633;-47
2021/08/18 03:06:43;;;;;;;3.20;2.90;;;16.20;56.90;;;;;;5032138;28;20311;-44
2021/08/18 03:09:14;;;;;;;3.78;2.85;;;16.20;56.90;;;;;;5031856;28;20258;-49
2021/08/18 03:11:44;;;;;;;3.70;2.60;;;16.20;56.90;;;;;;5032312;28;20239;-50
2021/08/18 03:14:16;;;;;;;3.10;2.65;;;16.30;57.10;;;;;;5033058;28;20251;-50
2021/08/18 03:16:47;;;;;;;2.75;2.55;;;16.30;57.20;;;;;;5050859;28;20265;-45
2021/08/18 03:19:17;;;;;;;3.40;2.60;;;16.40;57.20;;;;;;5050974;28;20234;-50
2021/08/18 03:21:48;;;;;;;3.40;2.70;;;16.40;57.20;;;;;;5047972;28;20227;-49
2021/08/18 03:24:18;;;;;;;3.67;2.78;;;16.50;57.30;;;;;;5050370;28;20230;-49
2021/08/18 03:26:48;;;;;;;3.15;2.85;;;16.50;57.30;;;;;;5051260;28;20266;-50
2021/08/18 03:29:21;;;;;;;3.00;2.70;;;16.50;57.30;;;;;;5050351;28;20235;-47
2021/08/18 03:31:51;;;;;;;2.90;2.25;;;16.60;57.30;;;;;;5050800;28;20300;-52
2021/08/18 03:34:22;;;;;;;4.35;3.00;;;16.60;57.30;;;;;;5040615;28;20238;-45
2021/08/18 03:36:52;;;;;;;4.30;2.72;;;16.60;57.20;;;;;;5030597;28;20248;-49
2021/08/18 03:39:22;;;;;;;2.55;2.35;;;16.70;57.20;;;;;;5046008;28;20239;-45
2021/08/18 03:41:53;;;;;;;3.20;2.90;;;16.70;57.20;;;;;;5050238;28;20679;-47
2021/08/18 03:44:25;;;;;;;3.13;2.83;;;16.70;57.10;;;;;;5051239;28;20238;-49
2021/08/18 03:46:56;;;;;;;2.78;2.20;;;16.80;57.10;;;;;;5049668;28;20310;-52
2021/08/18 03:49:26;;;;;;;2.67;2.47;;;16.80;57.10;;;;;;5031130;28;20242;-49
2021/08/18 03:51:56;;;;;;;2.95;2.72;;;16.80;57.00;;;;;;5042881;28;20242;-48
2021/08/18 03:54:27;;;;;;;2.67;2.15;;;16.90;57.00;;;;;;5050702;28;20230;-45
2021/08/18 03:56:57;;;;;;;2.80;2.60;;;16.90;57.00;;;;;;5049798;28;20250;-51
2021/08/18 03:59:29;;;;;;;2.83;2.10;;;16.90;57.00;;;;;;5050401;28;20675;-51
2021/08/18 04:02:00;;;;;;;2.65;2.45;;;16.90;56.90;;;;;;5049902;28;20246;-52
2021/08/18 04:04:30;;;;;;;2.78;2.50;;;17.00;57.00;;;;;;5038037;28;20232;-49
2021/08/18 04:07:01;;;;;;;3.25;2.40;;;17.00;56.90;;;;;;5030301;28;20735;-54
2021/08/18 04:09:31;;;;;;;2.70;2.50;;;17.00;57.40;;;;;;5029388;28;20466;-52
2021/08/18 04:12:02;;;;;;;2.22;2.05;;;17.10;56.80;;;;;;5031280;28;20231;-53
2021/08/18 04:14:34;;;;;;;2.17;1.95;;;17.10;56.70;;;;;;5030962;28;20251;-50
2021/08/18 04:17:04;;;;;;;2.88;2.20;;;17.20;56.70;;;;;;5031005;28;20319;-47
2021/08/18 04:19:36;;;;;;;3.92;2.58;;;17.20;57.20;;;;;;5029970;28;20227;-48
2021/08/18 04:22:06;;;;;;;3.80;2.50;;;17.20;56.60;;;;;;5037073;28;20196;-48
2021/08/18 04:24:37;;;;;;;2.50;2.30;;;17.30;56.50;;;;;;5047926;28;20523;-51
2021/08/18 04:27:08;;;;;;;2.40;2.20;;;17.30;56.40;;;;;;5048953;28;20223;-50
2021/08/18 04:29:40;;;;;;;2.42;2.22;;;17.30;56.40;;;;;;5049342;28;20274;-46
2021/08/18 04:32:11;;;;;;;2.78;2.30;;;17.30;56.30;;;;;;5049653;28;20241;-48
2021/08/18 04:34:41;;;;;;;2.60;2.40;;;17.30;56.20;;;;;;5036775;28;20283;-51
2021/08/18 04:37:11;;;;;;;2.60;2.22;;;17.30;56.10;;;;;;5030663;28;20452;-53
2021/08/18 04:39:42;;;;;;;8.80;2.80;;;17.40;56.10;;;;;;5042993;28;20214;-46
2021/08/18 04:42:12;;;;;;;3.70;2.22;;;17.40;55.90;;;;;;5050323;28;20230;-52
2021/08/18 04:44:45;;;;;;;6.95;2.60;;;17.40;55.80;;;;;;5049890;28;20239;-49
2021/08/18 04:47:15;;;;;;;11.15;2.80;;;17.40;55.70;;;;;;5050340;28;20270;-49
2021/08/18 04:49:45;;;;;;;13.07;2.58;;;17.50;55.60;;;;;;5048577;28;20270;-45
2021/08/18 04:52:16;;;;;;;9.23;2.50;;;17.50;55.60;;;;;;5047787;28;20226;-46
2021/08/18 04:54:46;;;;;;;7.72;2.80;;;17.50;55.40;;;;;;5049308;28;20235;-47
2021/08/18 04:57:17;;;;;;;4.63;2.67;;;17.50;55.20;;;;;;5050610;28;20647;-47
2021/08/18 04:59:49;;;;;;;8.40;2.80;;;17.50;55.10;;;;;;5049789;28;20676;-45
2021/08/18 05:02:19;;;;;;;4.00;2.58;;;17.50;55.00;;;;;;5050799;28;20614;-45
2021/08/18 05:04:50;;;;;;;5.15;2.38;;;17.50;55.00;;;;;;5035885;28;20727;-49
2021/08/18 05:07:20;;;;;;;9.55;2.88;;;17.50;54.90;;;;;;5029052;28;20259;-50
2021/08/18 05:09:51;;;;;;;6.85;2.60;;;17.50;54.80;;;;;;5029631;28;20231;-45
2021/08/18 05:12:21;;;;;;;3.63;2.50;;;17.50;54.80;;;;;;5028854;28;20236;-50
2021/08/18 05:14:53;;;;;;;6.43;2.65;;;17.50;54.60;;;;;;5038560;28;20227;-49
2021/08/18 05:17:24;;;;;;;7.85;2.35;;;17.50;54.60;;;;;;5048835;28;20311;-51
2021/08/18 05:19:54;;;;;;;4.25;2.80;;;17.50;54.40;;;;;;5049840;28;20239;-49
2021/08/18 05:22:25;;;;;;;7.53;2.78;;;17.50;54.30;;;;;;5052715;28;20235;-53
2021/08/18 05:24:55;;;;;;;13.18;2.58;;;17.50;54.20;;;;;;5053505;28;20227;-52
2021/08/18 05:27:25;;;;;;;3.17;2.25;;;17.50;54.80;;;;;;5052090;28;20255;-49
2021/08/18 05:29:58;;;;;;;3.20;2.65;;;17.50;54.10;;;;;;5053493;28;20621;-46
2021/08/18 05:32:28;;;;;;;6.82;2.75;;;17.50;54.20;;;;;;5053614;28;20703;-51
2021/08/18 05:34:59;;;;;;;4.70;2.60;;;17.40;54.20;;;;;;5053730;28;20196;-44
2021/08/18 05:37:29;;;;;;;2.85;2.58;;;17.50;54.30;;;;;;5053282;28;20258;-48
2021/08/18 05:39:59;;;;;;;5.70;2.83;;;17.40;54.30;;;;;;5052370;28;20227;-42
2021/08/18 05:42:30;;;;;;;4.07;2.60;;;17.40;54.30;;;;;;5053272;28;20230;-48
2021/08/18 05:45:02;;;;;;;3.88;2.75;;;17.40;54.30;;;;;;5052964;28;20227;-44
2021/08/18 05:47:33;;;;;;;5.32;2.55;;;17.40;54.30;;;;;;5052808;28;20231;-53
2021/08/18 05:50:03;;;;;;;3.95;2.67;;;17.40;54.40;;;;;;5051901;28;20227;-51
2021/08/18 05:52:33;;;;;;;4.95;2.30;;;17.40;54.40;;;;;;5052878;28;20254;-43
2021/08/18 05:55:04;;;;;;;3.45;2.20;;;17.30;54.70;;;;;;5051908;28;20223;-51
2021/08/18 05:57:34;;;;;;;4.15;2.75;;;17.30;54.30;;;;;;5052472;28;20223;-50
2021/08/18 06:00:07;;;;;;;4.20;2.80;;;17.30;54.40;;;;;;5053507;28;20231;-49
2021/08/18 06:02:38;;;;;;;5.35;2.60;;;17.30;54.40;;;;;;5052416;28;20226;-45
2021/08/18 06:05:09;;;;;;;3.22;2.58;;;17.20;54.40;;;;;;5034679;28;20239;-45
2021/08/18 06:07:40;;;;;;;4.45;2.67;;;17.20;54.50;;;;;;5032539;28;20258;-47
2021/08/18 06:10:11;;;;;;;4.88;3.28;;;17.20;54.50;;;;;;5037242;28;20656;-46
2021/08/18 06:12:41;;;;;;;4.88;3.15;;;17.20;54.60;;;;;;5032396;28;20231;-44
2021/08/18 06:15:14;;;;;;;5.90;4.00;;;17.20;54.60;;;;;;5033229;28;20235;-47
2021/08/18 06:17:46;;;;;;;5.70;4.40;;;17.20;54.50;;;;;;5031390;28;20260;-47
2021/08/18 06:20:17;;;;;;;5.47;3.90;;;17.10;54.40;;;;;;5032414;28;20200;-52
2021/08/18 06:22:48;;;;;;;6.95;5.10;;;17.10;54.40;;;;;;5031852;28;20262;-50
2021/08/18 06:25:18;;;;;;;7.68;5.10;;;17.10;54.40;;;;;;5032029;28;20192;-47
2021/08/18 06:27:50;;;;;;;8.15;5.47;;;17.10;54.40;;;;;;5031879;28;20324;-50
2021/08/18 06:30:22;;;;;;;8.10;5.70;;;17.00;54.40;;;;;;5031739;28;20336;-48
2021/08/18 06:32:52;;;;;;;7.60;5.50;;;17.00;54.50;;;;;;5031227;28;20231;-46
2021/08/18 06:35:23;;;;;;;6.07;5.22;;;17.00;54.50;;;;;;5051281;28;20660;-52
2021/08/18 06:37:53;;;;;;;7.63;5.88;;;16.90;54.50;;;;;;5051875;28;20726;-54
2021/08/18 06:40:24;;;;;;;7.57;5.65;;;16.90;54.50;;;;;;5051711;28;20729;-54
2021/08/18 06:42:54;;;;;;;6.28;5.35;;;16.90;54.60;;;;;;5051522;28;20234;-48
2021/08/18 06:45:28;;;;;;;7.95;6.43;;;16.90;54.60;;;;;;5050202;28;20234;-54
2021/08/18 06:47:59;;;;;;;7.43;6.50;;;16.90;54.60;;;;;;5051472;28;20223;-50
2021/08/18 06:50:29;;;;;;;9.73;7.20;;;16.80;54.60;;;;;;5051897;28;20223;-54
2021/08/18 06:53:00;;;;;;;8.52;6.53;;;16.80;54.60;;;;;;5051644;28;20191;-54
2021/08/18 06:55:30;;;;;;;10.13;7.00;;;16.80;54.60;;;;;;5051068;28;20563;-51
2021/08/18 06:58:01;;;;;;;8.75;6.28;;;16.80;54.70;;;;;;5051520;28;20223;-47
2021/08/18 07:00:33;;;;;;;9.02;7.32;;;16.70;54.60;;;;;;5052279;28;20231;-52
2021/08/18 07:03:03;;;;;;;7.72;6.50;;;16.70;54.60;;;;;;5051584;28;20234;-49
2021/08/18 07:05:34;;;;;;;7.50;6.00;;;16.70;54.60;;;;;;5031371;28;20228;-49
2021/08/18 07:08:04;;;;;;;7.28;5.97;;;16.70;54.60;;;;;;5031107;28;20271;-54
2021/08/18 07:10:35;;;;;;;8.88;6.32;;;16.60;54.60;;;;;;5031637;28;20247;-55
2021/08/18 07:13:05;;;;;;;8.95;6.50;;;16.60;54.60;;;;;;5049449;28;20254;-51
2021/08/18 07:15:37;;;;;;;8.55;6.55;;;16.60;54.70;;;;;;5045941;23;20333;-54
2021/08/18 07:18:08;;;;;;;8.10;5.95;;;16.60;54.70;;;;;;5031922;28;20239;-50
2021/08/18 07:20:39;;;;;;;8.45;6.15;;;16.60;54.70;;;;;;5032072;28;20231;-54
2021/08/18 07:23:10;;;;;;;8.18;5.93;;;16.50;54.70;;;;;;5031225;28;20231;-55
2021/08/18 07:25:40;;;;;;;7.60;5.75;;;16.50;54.70;;;;;;5031420;28;20255;-55
2021/08/18 07:28:10;;;;;;;8.35;6.55;;;16.50;54.70;;;;;;5031634;28;20306;-55
2021/08/18 07:30:43;;;;;;;8.32;6.35;;;16.50;54.70;;;;;;5031738;28;20228;-52
2021/08/18 07:33:13;;;;;;;6.40;5.40;;;16.50;54.70;;;;;;5029256;28;20250;-52
2021/08/18 07:35:44;;;;;;;6.80;5.88;;;16.40;54.70;;;;;;4992032;28;20586;-57
2021/08/18 07:38:14;;;;;;;7.60;6.25;;;16.40;54.70;;;;;;4992057;28;20701;-55
2021/08/18 07:40:44;;;;;;;7.10;5.88;;;16.40;54.60;;;;;;4991926;28;20233;-55
2021/08/18 07:43:15;;;;;;;7.93;5.60;;;16.30;54.60;;;;;;4991543;28;20232;-55
2021/08/18 07:45:47;;;;;;;7.07;6.25;;;16.30;54.70;;;;;;4992030;28;20229;-55
2021/08/18 07:48:17;;;;;;;7.55;5.40;;;16.30;54.70;;;;;;4991835;28;20316;-55
2021/08/18 07:50:48;;;;;;;5.70;5.10;;;16.30;54.70;;;;;;4992401;28;20291;-52
2021/08/18 07:53:18;;;;;;;6.18;5.45;;;16.30;54.70;;;;;;4991884;28;20229;-54
2021/08/18 07:55:49;;;;;;;6.43;5.45;;;16.20;54.70;;;;;;4991557;28;20193;-55
2021/08/18 07:58:19;;;;;;;6.70;5.65;;;16.20;54.70;;;;;;4992130;28;20253;-55
2021/08/18 08:00:51;;;;;;;6.32;5.13;;;16.20;54.70;;;;;;4992141;28;20741;-54
2021/08/18 08:03:22;;;;;;;5.88;5.10;;;16.20;54.80;;;;;;4992253;28;20225;-51
2021/08/18 08:05:52;;;;;;;8.50;6.05;;;16.20;55.40;;;;;;4996921;28;20565;-55
2021/08/18 08:08:23;;;;;;;5.95;5.20;;;16.20;55.00;;;;;;5011729;28;20723;-49
2021/08/18 08:10:53;;;;;;;7.65;5.38;;;16.20;55.10;;;;;;5010931;28;20235;-49
2021/08/18 08:13:24;;;;;;;7.05;5.45;;;16.10;55.00;;;;;;5011202;28;20283;-54
2021/08/18 08:15:56;;;;;;;8.15;5.63;;;16.10;55.00;;;;;;5011819;28;20235;-50
2021/08/18 08:18:26;;;;;;;6.72;5.20;;;16.10;55.00;;;;;;5011562;28;20262;-53
2021/08/18 08:20:57;;;;;;;5.97;5.28;;;16.10;55.00;;;;;;5011555;28;20236;-50
2021/08/18 08:23:27;;;;;;;6.70;5.57;;;16.10;55.00;;;;;;5011375;28;20232;-50
2021/08/18 08:25:57;;;;;;;6.15;5.35;;;16.00;55.00;;;;;;5010390;28;20498;-50
2021/08/18 08:28:28;;;;;;;6.40;5.15;;;16.00;55.00;;;;;;5011018;28;20671;-51
2021/08/18 08:31:00;;;;;;;7.00;5.30;;;16.00;55.00;;;;;;5011314;28;20295;-49
2021/08/18 08:33:31;;;;;;;7.18;5.43;;;16.00;55.00;;;;;;5006702;28;20237;-51
2021/08/18 08:36:01;;;;;;;7.35;5.45;;;16.00;55.00;;;;;;4991107;28;20193;-52
2021/08/18 08:38:31;;;;;;;6.22;5.40;;;16.00;55.10;;;;;;4991766;28;20345;-51
2021/08/18 08:41:02;;;;;;;6.30;5.32;;;15.90;55.00;;;;;;4996029;28;20684;-52
2021/08/18 08:43:33;;;;;;;7.65;5.80;;;15.90;55.00;;;;;;5011355;28;20193;-51
2021/08/18 08:46:07;;;;;;;5.80;5.20;;;15.90;55.00;;;;;;5010739;28;20243;-53
2021/08/18 08:48:37;;;;;;;5.65;5.05;;;15.90;55.00;;;;;;5010534;28;20234;-50
2021/08/18 08:51:08;;;;;;;5.45;4.93;;;15.80;55.00;;;;;;5010548;28;20623;-51
2021/08/18 08:53:38;;;;;;;7.28;5.40;;;15.80;55.00;;;;;;5011355;28;20657;-54
2021/08/18 08:56:10;;;;;;;7.65;5.60;;;15.80;55.00;;;;;;5013367;28;20661;-50
2021/08/18 08:58:41;;;;;;;5.63;4.93;;;15.80;55.00;;;;;;5014941;28;20225;-51
2021/08/18 09:01:13;;;;;;;5.40;4.80;;;15.80;55.00;;;;;;5014959;28;20239;-50
2021/08/18 09:03:44;;;;;;;5.75;5.20;;;15.70;54.90;;;;;;5009441;28;20280;-50
2021/08/18 09:06:14;;;;;;;5.70;4.97;;;15.70;55.00;;;;;;4995492;28;20284;-55
2021/08/18 09:08:51;;;;;;;5.65;5.03;;;15.60;55.00;;;;;;4995172;28;20260;-49
2021/08/18 09:11:21;;;;;;;6.78;5.00;;;15.60;54.90;;;;;;4994736;28;20236;-51
2021/08/18 09:16:23;;;;;;;6.35;5.35;;;15.60;55.00;;;;;;4993247;28;20232;-54
2021/08/18 09:18:54;;;;;;;6.63;5.43;;;15.50;55.00;;;;;;4995000;28;20648;-52
2021/08/18 09:21:38;;;;;;;5.90;5.30;;;15.50;55.00;;;;;;4994879;28;20244;-56
2021/08/18 09:24:31;;;;;;;5.38;4.88;;;15.50;55.00;;;;;;4994774;28;20229;-56
2021/08/18 09:27:06;;;;;;;6.13;5.38;;;15.50;55.00;;;;;;4994523;28;20221;-56
2021/08/18 09:29:41;;;;;;;5.07;4.55;;;15.50;55.00;;;;;;4994581;28;20201;-53
2021/08/18 09:32:31;;;;;;;5.57;4.97;;;15.40;55.00;;;;;;4994270;28;20288;-56
2021/08/18 09:35:02;;;;;;;7.32;5.55;;;15.40;55.00;;;;;;4993626;28;20328;-56
2021/08/18 09:37:33;;;;;;;5.25;4.75;;;15.40;55.60;;;;;;4993981;28;20253;-54
2021/08/18 09:40:03;;;;;;;5.75;5.10;;;15.40;56.60;;;;;;4994557;28;20197;-57
2021/08/18 09:42:34;;;;;;;5.97;4.40;;;15.40;56.20;;;;;;4972063;28;20737;-56
2021/08/18 09:45:17;;;;;;;6.82;4.93;;;15.40;56.30;;;;;;4978649;28;20244;-56
2021/08/18 09:48:09;;;;;;;5.10;4.60;;;15.40;56.20;;;;;;4985851;28;20259;-54
2021/08/18 09:50:53;;;;;;;5.97;4.68;;;15.40;56.10;;;;;;4992906;28;20289;-55
2021/08/18 09:53:24;;;;;;;5.85;5.05;;;15.40;56.00;;;;;;4994066;28;20202;-54
2021/08/18 09:55:59;;;;;;;6.05;4.72;;;15.40;55.90;;;;;;4993701;28;20284;-55
2021/08/18 09:58:31;;;;;;;4.93;4.35;;;15.30;55.90;;;;;;4992961;28;20229;-57
2021/08/18 10:01:02;;;;;;;5.95;4.88;;;15.30;55.80;;;;;;4993105;28;20232;-55
2021/08/18 10:03:34;;;;;;;4.95;4.38;;;15.30;55.80;;;;;;4984685;28;20249;-56
2021/08/18 10:06:05;;;;;;;5.57;4.70;;;15.30;55.80;;;;;;4973224;28;20289;-56
2021/08/18 10:08:35;;;;;;;4.82;4.43;;;15.30;55.80;;;;;;4973990;28;20344;-56
2021/08/18 10:11:06;;;;;;;5.40;4.68;;;15.20;55.70;;;;;;4973644;28;20257;-53
2021/08/18 10:13:36;;;;;;;5.63;4.55;;;15.20;55.70;;;;;;4974086;28;20240;-56
2021/08/18 10:16:08;;;;;;;5.68;4.28;;;15.20;55.70;;;;;;4975817;28;20684;-55
2021/08/18 10:18:41;;;;;;;4.88;4.30;;;15.20;55.70;;;;;;5014621;23;20259;-49
2021/08/18 10:21:12;;;;;;;5.38;4.60;;;15.10;55.70;;;;;;5013514;28;20530;-49
2021/08/18 10:23:55;;;;;;;4.47;4.07;;;15.10;55.70;;;;;;5011753;28;20236;-46
2021/08/18 10:26:50;;;;;;;5.30;4.43;;;15.10;55.80;;;;;;5012567;28;20220;-46
2021/08/18 10:29:30;;;;;;;5.50;4.60;;;15.10;55.80;;;;;;5012425;28;20220;-46
2021/08/18 10:32:04;;;;;;;5.20;4.32;;;15.10;55.80;;;;;;5002761;28;20193;-44
2021/08/18 10:34:43;;;;;;;5.53;4.65;;;15.00;55.70;;;;;;4990198;28;20238;-43
2021/08/18 10:37:27;;;;;;;16.17;5.00;;;15.00;55.80;;;;;;4996384;28;20252;-47
2021/08/18 10:39:58;;;;;;;14.20;5.13;;;15.00;55.80;;;;;;4992316;28;20288;-45
2021/08/18 10:42:39;;;;;;;13.18;4.80;;;15.00;55.70;;;;;;4991710;28;20288;-45
2021/08/18 10:45:42;;;;;;;11.00;3.90;;;15.00;55.70;;;;;;4989778;28;20208;-47
2021/08/18 10:48:12;;;;;;;6.88;3.90;;;15.00;55.80;;;;;;4992301;28;20323;-43
2021/08/18 10:50:51;;;;;;;10.48;4.10;;;14.90;55.70;;;;;;4992298;28;20201;-42
2021/08/18 10:53:36;;;;;;;6.20;3.67;;;14.90;55.70;;;;;;4992541;28;20236;-44
2021/08/18 10:56:39;;;;;;;6.95;4.20;;;14.90;55.70;;;;;;4991731;28;20239;-42
2021/08/18 10:59:40;;;;;;;9.70;4.88;;;14.80;55.70;;;;;;4989590;28;20276;-42
2021/08/18 11:02:11;;;;;;;5.15;3.90;;;14.80;55.70;;;;;;4991353;28;20487;-42
2021/08/18 11:04:47;;;;;;;7.70;3.80;;;14.80;55.70;;;;;;4978385;28;20285;-42
2021/08/18 11:07:19;;;;;;;7.43;3.75;;;14.80;55.70;;;;;;4973822;28;20241;-48
2021/08/18 11:10:07;;;;;;;10.98;4.68;;;14.70;55.60;;;;;;4973286;28;20250;-47
2021/08/18 11:12:55;;;;;;;7.05;4.10;;;14.70;55.60;;;;;;5009997;28;20689;-48
2021/08/18 11:16:01;;;;;;;5.97;4.00;;;14.70;55.60;;;;;;5012629;28;20292;-49
2021/08/18 11:18:31;;;;;;;6.70;4.15;;;14.70;55.70;;;;;;5023649;22;20248;-59
2021/08/18 11:21:01;;;;;;;5.90;3.72;;;14.70;55.60;;;;;;5012036;28;20280;-57
2021/08/18 11:23:35;;;;;;;4.20;3.47;;;14.70;55.60;;;;;;5011386;28;20233;-54
2021/08/18 11:26:06;;;;;;;5.60;3.90;;;14.60;55.60;;;;;;5011534;28;20266;-54
2021/08/18 11:28:37;;;;;;;6.80;3.70;;;14.60;55.60;;;;;;5012396;28;20755;-57
2021/08/18 11:31:09;;;;;;;4.88;3.70;;;14.60;55.60;;;;;;5011995;28;20319;-58
2021/08/18 11:33:40;;;;;;;5.30;3.75;;;14.50;55.60;;;;;;5012046;28;20280;-56
2021/08/18 11:36:20;;;;;;;5.85;4.13;;;14.50;55.60;;;;;;5012114;28;20236;-55
2021/08/18 11:39:01;;;;;;;5.35;3.97;;;14.50;55.70;;;;;;5012389;28;20200;-56
2021/08/18 11:41:42;;;;;;;6.78;3.65;;;14.50;55.70;;;;;;5012149;28;20196;-54
2021/08/18 11:44:18;;;;;;;6.90;3.55;;;14.50;55.70;;;;;;5011727;28;20216;-55
2021/08/18 11:46:48;;;;;;;6.35;4.32;;;14.50;55.70;;;;;;5011949;28;20274;-56
2021/08/18 11:49:18;;;;;;;6.15;3.88;;;14.50;55.70;;;;;;5011703;28;20283;-57
2021/08/18 11:51:51;;;;;;;4.60;3.88;;;14.40;55.70;;;;;;5011634;28;20283;-56
2021/08/18 11:54:26;;;;;;;5.80;3.90;;;14.40;55.70;;;;;;5011436;28;20235;-57
2021/08/18 11:57:03;;;;;;;5.93;3.60;;;14.40;55.70;;;;;;5011903;28;20692;-57
2021/08/18 11:59:34;;;;;;;5.95;3.58;;;14.40;55.70;;;;;;5011617;28;20232;-59
2021/08/18 12:02:04;;;;;;;6.05;3.45;;;14.40;55.70;;;;;;5011702;28;20232;-58
2021/08/18 12:04:35;;;;;;;4.38;3.45;;;14.40;55.70;;;;;;5011320;28;20236;-57
2021/08/18 12:07:13;;;;;;;7.22;3.67;;;14.40;55.70;;;;;;5011117;28;20304;-58
2021/08/18 12:09:45;;;;;;;5.97;3.90;;;14.30;55.60;;;;;;5011554;28;20220;-58
2021/08/18 12:12:17;;;;;;;5.65;3.72;;;14.30;55.60;;;;;;5011277;28;20224;-58
2021/08/18 12:14:48;;;;;;;5.38;3.92;;;14.30;55.70;;;;;;5011909;28;20730;-57
2021/08/18 12:17:19;;;;;;;5.13;3.15;;;14.30;55.70;;;;;;5021557;23;20224;-45
2021/08/18 12:19:51;;;;;;;6.80;3.92;;;14.30;55.70;;;;;;4991069;28;20241;-44
2021/08/18 12:22:23;;;;;;;5.30;3.97;;;14.20;55.60;;;;;;4991826;28;20193;-41
2021/08/18 12:24:55;;;;;;;5.28;3.60;;;14.20;55.70;;;;;;4991673;28;20658;-41
2021/08/18 12:27:27;;;;;;;5.20;3.85;;;14.20;55.70;;;;;;4991426;28;20757;-42
2021/08/18 12:30:04;;;;;;;5.22;3.88;;;14.20;55.70;;;;;;4994078;28;20229;-44
2021/08/18 12:32:34;;;;;;;5.93;4.20;;;14.20;55.70;;;;;;4996106;28;20235;-42
2021/08/18 12:35:05;;;;;;;5.05;3.33;;;14.20;55.60;;;;;;4995425;28;20236;-48
2021/08/18 12:37:38;;;;;;;7.55;3.67;;;14.20;55.60;;;;;;4995515;28;20253;-47
2021/08/18 12:40:12;;;;;;;6.88;3.88;;;14.20;55.70;;;;;;4995491;28;20237;-45
2021/08/18 12:42:43;;;;;;;5.45;3.67;;;14.20;55.70;;;;;;4995226;28;20221;-45
2021/08/18 12:45:14;;;;;;;5.20;3.45;;;14.10;55.60;;;;;;4995007;28;20289;-49
2021/08/18 12:47:45;;;;;;;5.47;3.53;;;14.10;55.60;;;;;;4995119;28;20264;-45
2021/08/18 12:50:16;;;;;;;4.30;3.38;;;14.10;55.60;;;;;;4993934;28;20319;-44
2021/08/18 12:52:46;;;;;;;7.15;3.85;;;14.10;55.70;;;;;;4977103;28;20233;-47
2021/08/18 12:55:19;;;;;;;5.63;3.42;;;14.10;55.70;;;;;;4975576;28;20244;-50
2021/08/18 12:57:49;;;;;;;5.07;3.47;;;14.00;55.60;;;;;;4975539;28;20277;-44
2021/08/18 13:00:20;;;;;;;4.80;3.40;;;14.00;55.60;;;;;;4976221;28;20245;-48
2021/08/18 13:02:50;;;;;;;5.72;4.10;;;14.00;55.60;;;;;;4978273;28;20230;-45
2021/08/18 13:05:20;;;;;;;5.13;3.00;;;14.00;55.60;;;;;;4975511;28;20249;-47
2021/08/18 13:07:51;;;;;;;5.70;3.78;;;14.00;55.90;;;;;;4975296;28;20254;-45
2021/08/18 13:10:23;;;;;;;6.30;3.70;;;14.00;55.60;;;;;;4975297;28;20222;-49
2021/08/18 13:12:54;;;;;;;5.07;3.60;;;14.00;55.70;;;;;;5014727;28;20232;-48